sensor_id;sensor_type;location;lat;lon;timestamp;P1;durP1;ratioP1;P2;durP2;ratioP2
51312;SDS011;37397;53.226;10.400;2023-12-22T00:00:26;18.40;;;3.95;;
51312;SDS011;37397;53.226;10.400;2023-12-22T00:02:52;20.73;;;3.70;;
51312;SDS011;37397;53.226;10.400;2023-12-22T00:05:19;22.67;;;4.55;;
51312;SDS011;37397;53.226;10.400;2023-12-22T00:07:46;22.23;;;5.57;;
51312;SDS011;37397;53.226;10.400;2023-12-22T00:10:13;24.88;;;5.43;;
51312;SDS011;37397;53.226;10.400;2023-12-22T00:12:39;23.55;;;4.53;;
51312;SDS011;37397;53.226;10.400;2023-12-22T00:15:07;27.02;;;4.95;;
51312;SDS011;37397;53.226;10.400;2023-12-22T00:17:33;21.23;;;4.13;;
51312;SDS011;37397;53.226;10.400;2023-12-22T00:20:00;23.85;;;4.70;;
51312;SDS011;37397;53.226;10.400;2023-12-22T00:22:29;18.75;;;3.88;;
51312;SDS011;37397;53.226;10.400;2023-12-22T00:24:56;23.13;;;4.50;;
51312;SDS011;37397;53.226;10.400;2023-12-22T00:27:23;21.02;;;4.40;;
51312;SDS011;37397;53.226;10.400;2023-12-22T00:29:49;29.50;;;5.03;;
51312;SDS011;37397;53.226;10.400;2023-12-22T00:32:16;23.13;;;4.93;;
51312;SDS011;37397;53.226;10.400;2023-12-22T00:34:43;21.02;;;4.50;;
51312;SDS011;37397;53.226;10.400;2023-12-22T00:37:09;21.20;;;5.10;;
51312;SDS011;37397;53.226;10.400;2023-12-22T00:39:36;27.92;;;5.35;;
51312;SDS011;37397;53.226;10.400;2023-12-22T00:42:02;27.17;;;5.53;;
51312;SDS011;37397;53.226;10.400;2023-12-22T00:44:30;23.35;;;5.05;;
51312;SDS011;37397;53.226;10.400;2023-12-22T00:46:57;21.40;;;4.95;;
51312;SDS011;37397;53.226;10.400;2023-12-22T00:49:23;20.35;;;4.28;;
51312;SDS011;37397;53.226;10.400;2023-12-22T00:51:50;20.77;;;4.50;;
51312;SDS011;37397;53.226;10.400;2023-12-22T00:54:16;13.18;;;3.40;;
51312;SDS011;37397;53.226;10.400;2023-12-22T00:56:43;17.02;;;3.50;;
51312;SDS011;37397;53.226;10.400;2023-12-22T00:59:09;16.98;;;3.35;;
51312;SDS011;37397;53.226;10.400;2023-12-22T01:01:37;21.10;;;3.97;;
51312;SDS011;37397;53.226;10.400;2023-12-22T01:04:04;20.95;;;4.45;;
51312;SDS011;37397;53.226;10.400;2023-12-22T01:06:30;17.80;;;3.40;;
51312;SDS011;37397;53.226;10.400;2023-12-22T01:08:58;17.52;;;4.22;;
51312;SDS011;37397;53.226;10.400;2023-12-22T01:11:24;17.88;;;3.25;;
51312;SDS011;37397;53.226;10.400;2023-12-22T01:13:51;17.20;;;3.47;;
51312;SDS011;37397;53.226;10.400;2023-12-22T01:16:18;16.38;;;3.83;;
51312;SDS011;37397;53.226;10.400;2023-12-22T01:18:48;18.85;;;3.40;;
51312;SDS011;37397;53.226;10.400;2023-12-22T01:21:14;21.23;;;3.75;;
51312;SDS011;37397;53.226;10.400;2023-12-22T01:23:41;17.52;;;3.92;;
51312;SDS011;37397;53.226;10.400;2023-12-22T01:26:07;16.67;;;3.45;;
51312;SDS011;37397;53.226;10.400;2023-12-22T01:28:34;10.50;;;3.35;;
51312;SDS011;37397;53.226;10.400;2023-12-22T01:31:01;18.17;;;3.83;;
51312;SDS011;37397;53.226;10.400;2023-12-22T01:33:28;17.98;;;3.63;;
51312;SDS011;37397;53.226;10.400;2023-12-22T01:35:56;18.08;;;3.63;;
51312;SDS011;37397;53.226;10.400;2023-12-22T01:38:22;17.27;;;3.70;;
51312;SDS011;37397;53.226;10.400;2023-12-22T01:40:49;17.75;;;3.63;;
51312;SDS011;37397;53.226;10.400;2023-12-22T01:43:16;13.55;;;2.90;;
51312;SDS011;37397;53.226;10.400;2023-12-22T01:45:48;14.35;;;3.00;;
51312;SDS011;37397;53.226;10.400;2023-12-22T01:48:16;20.70;;;3.58;;
51312;SDS011;37397;53.226;10.400;2023-12-22T01:50:43;15.52;;;2.97;;
51312;SDS011;37397;53.226;10.400;2023-12-22T01:53:10;11.25;;;2.40;;
51312;SDS011;37397;53.226;10.400;2023-12-22T01:55:37;9.38;;;2.20;;
51312;SDS011;37397;53.226;10.400;2023-12-22T01:58:04;10.93;;;2.58;;
51312;SDS011;37397;53.226;10.400;2023-12-22T02:00:30;8.77;;;2.42;;
51312;SDS011;37397;53.226;10.400;2023-12-22T02:02:57;8.32;;;2.40;;
51312;SDS011;37397;53.226;10.400;2023-12-22T02:05:24;10.50;;;2.00;;
51312;SDS011;37397;53.226;10.400;2023-12-22T02:07:50;10.35;;;2.45;;
51312;SDS011;37397;53.226;10.400;2023-12-22T02:10:17;11.20;;;2.08;;
51312;SDS011;37397;53.226;10.400;2023-12-22T02:12:44;7.13;;;2.20;;
51312;SDS011;37397;53.226;10.400;2023-12-22T02:15:10;11.55;;;2.42;;
51312;SDS011;37397;53.226;10.400;2023-12-22T02:17:43;13.15;;;3.05;;
51312;SDS011;37397;53.226;10.400;2023-12-22T02:20:15;11.88;;;2.47;;
51312;SDS011;37397;53.226;10.400;2023-12-22T02:22:42;12.18;;;2.65;;
51312;SDS011;37397;53.226;10.400;2023-12-22T02:25:09;12.88;;;2.35;;
51312;SDS011;37397;53.226;10.400;2023-12-22T02:27:48;12.85;;;2.42;;
51312;SDS011;37397;53.226;10.400;2023-12-22T02:30:24;12.70;;;2.53;;
51312;SDS011;37397;53.226;10.400;2023-12-22T02:32:54;10.77;;;2.45;;
51312;SDS011;37397;53.226;10.400;2023-12-22T02:35:25;12.85;;;2.35;;
51312;SDS011;37397;53.226;10.400;2023-12-22T02:37:56;14.85;;;2.65;;
51312;SDS011;37397;53.226;10.400;2023-12-22T02:40:25;8.48;;;2.15;;
51312;SDS011;37397;53.226;10.400;2023-12-22T02:42:52;13.35;;;2.33;;
51312;SDS011;37397;53.226;10.400;2023-12-22T02:45:19;11.23;;;2.53;;
51312;SDS011;37397;53.226;10.400;2023-12-22T02:47:46;13.48;;;3.03;;
51312;SDS011;37397;53.226;10.400;2023-12-22T02:50:15;11.60;;;2.28;;
51312;SDS011;37397;53.226;10.400;2023-12-22T02:52:42;15.73;;;2.78;;
51312;SDS011;37397;53.226;10.400;2023-12-22T02:55:09;17.15;;;3.00;;
51312;SDS011;37397;53.226;10.400;2023-12-22T02:57:36;16.60;;;3.10;;
51312;SDS011;37397;53.226;10.400;2023-12-22T03:00:02;15.80;;;2.72;;
51312;SDS011;37397;53.226;10.400;2023-12-22T03:02:29;11.82;;;2.33;;
51312;SDS011;37397;53.226;10.400;2023-12-22T03:04:56;18.75;;;2.83;;
51312;SDS011;37397;53.226;10.400;2023-12-22T03:07:22;15.18;;;2.97;;
51312;SDS011;37397;53.226;10.400;2023-12-22T03:09:49;17.13;;;3.13;;
51312;SDS011;37397;53.226;10.400;2023-12-22T03:12:15;11.18;;;2.63;;
51312;SDS011;37397;53.226;10.400;2023-12-22T03:14:42;15.77;;;2.92;;
51312;SDS011;37397;53.226;10.400;2023-12-22T03:17:08;14.65;;;2.88;;
51312;SDS011;37397;53.226;10.400;2023-12-22T03:19:37;18.48;;;3.00;;
51312;SDS011;37397;53.226;10.400;2023-12-22T03:22:03;17.40;;;3.03;;
51312;SDS011;37397;53.226;10.400;2023-12-22T03:24:30;16.90;;;2.90;;
51312;SDS011;37397;53.226;10.400;2023-12-22T03:26:56;15.98;;;3.35;;
51312;SDS011;37397;53.226;10.400;2023-12-22T03:29:23;21.65;;;3.30;;
51312;SDS011;37397;53.226;10.400;2023-12-22T03:31:50;15.07;;;2.95;;
51312;SDS011;37397;53.226;10.400;2023-12-22T03:34:16;18.30;;;3.58;;
51312;SDS011;37397;53.226;10.400;2023-12-22T03:36:43;14.20;;;2.70;;
51312;SDS011;37397;53.226;10.400;2023-12-22T03:39:15;11.95;;;2.00;;
51312;SDS011;37397;53.226;10.400;2023-12-22T03:41:41;8.82;;;1.67;;
51312;SDS011;37397;53.226;10.400;2023-12-22T03:44:08;8.00;;;1.60;;
51312;SDS011;37397;53.226;10.400;2023-12-22T03:46:35;7.80;;;2.08;;
51312;SDS011;37397;53.226;10.400;2023-12-22T03:49:01;8.20;;;1.65;;
51312;SDS011;37397;53.226;10.400;2023-12-22T03:51:28;9.73;;;1.67;;
51312;SDS011;37397;53.226;10.400;2023-12-22T03:53:55;7.68;;;1.50;;
51312;SDS011;37397;53.226;10.400;2023-12-22T03:56:21;6.40;;;1.13;;
51312;SDS011;37397;53.226;10.400;2023-12-22T03:58:48;5.82;;;1.05;;
51312;SDS011;37397;53.226;10.400;2023-12-22T04:01:14;7.20;;;1.70;;
51312;SDS011;37397;53.226;10.400;2023-12-22T04:03:41;8.07;;;1.65;;
51312;SDS011;37397;53.226;10.400;2023-12-22T04:06:07;7.38;;;1.55;;
51312;SDS011;37397;53.226;10.400;2023-12-22T04:08:34;3.60;;;1.00;;
51312;SDS011;37397;53.226;10.400;2023-12-22T04:11:01;7.72;;;1.30;;
51312;SDS011;37397;53.226;10.400;2023-12-22T04:13:27;3.25;;;1.20;;
51312;SDS011;37397;53.226;10.400;2023-12-22T04:15:54;5.43;;;1.33;;
51312;SDS011;37397;53.226;10.400;2023-12-22T04:18:20;6.78;;;1.30;;
51312;SDS011;37397;53.226;10.400;2023-12-22T04:20:47;4.45;;;1.30;;
51312;SDS011;37397;53.226;10.400;2023-12-22T04:23:16;9.35;;;2.10;;
51312;SDS011;37397;53.226;10.400;2023-12-22T04:25:42;8.00;;;1.75;;
51312;SDS011;37397;53.226;10.400;2023-12-22T04:28:09;7.05;;;1.75;;
51312;SDS011;37397;53.226;10.400;2023-12-22T04:30:35;7.45;;;1.33;;
51312;SDS011;37397;53.226;10.400;2023-12-22T04:33:02;7.70;;;1.60;;
51312;SDS011;37397;53.226;10.400;2023-12-22T04:35:29;11.75;;;2.10;;
51312;SDS011;37397;53.226;10.400;2023-12-22T04:37:55;13.15;;;1.90;;
51312;SDS011;37397;53.226;10.400;2023-12-22T04:40:22;8.57;;;1.50;;
51312;SDS011;37397;53.226;10.400;2023-12-22T04:42:49;13.07;;;2.45;;
51312;SDS011;37397;53.226;10.400;2023-12-22T04:45:16;6.90;;;1.88;;
51312;SDS011;37397;53.226;10.400;2023-12-22T04:47:43;11.57;;;2.33;;
51312;SDS011;37397;53.226;10.400;2023-12-22T04:50:10;7.60;;;1.73;;
51312;SDS011;37397;53.226;10.400;2023-12-22T04:52:37;11.07;;;2.50;;
51312;SDS011;37397;53.226;10.400;2023-12-22T04:55:03;13.88;;;2.33;;
51312;SDS011;37397;53.226;10.400;2023-12-22T04:57:30;8.68;;;1.92;;
51312;SDS011;37397;53.226;10.400;2023-12-22T04:59:57;11.18;;;1.83;;
51312;SDS011;37397;53.226;10.400;2023-12-22T05:02:23;12.00;;;2.22;;
51312;SDS011;37397;53.226;10.400;2023-12-22T05:04:50;12.63;;;2.92;;
51312;SDS011;37397;53.226;10.400;2023-12-22T05:07:16;9.18;;;2.40;;
51312;SDS011;37397;53.226;10.400;2023-12-22T05:09:43;12.73;;;2.97;;
51312;SDS011;37397;53.226;10.400;2023-12-22T05:12:09;14.75;;;2.85;;
51312;SDS011;37397;53.226;10.400;2023-12-22T05:14:36;17.45;;;3.03;;
51312;SDS011;37397;53.226;10.400;2023-12-22T05:17:03;13.90;;;3.13;;
51312;SDS011;37397;53.226;10.400;2023-12-22T05:19:30;16.08;;;2.38;;
51312;SDS011;37397;53.226;10.400;2023-12-22T05:21:57;15.23;;;3.00;;
51312;SDS011;37397;53.226;10.400;2023-12-22T05:24:23;16.85;;;3.08;;
51312;SDS011;37397;53.226;10.400;2023-12-22T05:26:50;12.02;;;3.03;;
51312;SDS011;37397;53.226;10.400;2023-12-22T05:29:16;22.10;;;2.75;;
51312;SDS011;37397;53.226;10.400;2023-12-22T05:31:43;20.23;;;3.95;;
51312;SDS011;37397;53.226;10.400;2023-12-22T05:34:10;15.55;;;2.90;;
51312;SDS011;37397;53.226;10.400;2023-12-22T05:36:37;13.60;;;3.05;;
51312;SDS011;37397;53.226;10.400;2023-12-22T05:39:03;14.95;;;2.78;;
51312;SDS011;37397;53.226;10.400;2023-12-22T05:41:30;13.27;;;2.28;;
51312;SDS011;37397;53.226;10.400;2023-12-22T05:44:00;14.70;;;2.70;;
51312;SDS011;37397;53.226;10.400;2023-12-22T05:46:27;11.95;;;2.35;;
51312;SDS011;37397;53.226;10.400;2023-12-22T05:48:54;13.00;;;2.50;;
51312;SDS011;37397;53.226;10.400;2023-12-22T05:51:24;13.13;;;2.40;;
51312;SDS011;37397;53.226;10.400;2023-12-22T05:53:51;13.70;;;2.63;;
51312;SDS011;37397;53.226;10.400;2023-12-22T05:56:20;14.23;;;2.65;;
51312;SDS011;37397;53.226;10.400;2023-12-22T05:58:48;10.95;;;2.35;;
51312;SDS011;37397;53.226;10.400;2023-12-22T06:01:15;12.05;;;2.45;;
51312;SDS011;37397;53.226;10.400;2023-12-22T06:03:45;10.70;;;1.70;;
51312;SDS011;37397;53.226;10.400;2023-12-22T06:06:12;12.40;;;2.38;;
51312;SDS011;37397;53.226;10.400;2023-12-22T06:08:39;11.05;;;2.00;;
51312;SDS011;37397;53.226;10.400;2023-12-22T06:11:06;6.68;;;1.55;;
51312;SDS011;37397;53.226;10.400;2023-12-22T06:13:32;11.77;;;1.80;;
51312;SDS011;37397;53.226;10.400;2023-12-22T06:15:59;8.00;;;1.88;;
51312;SDS011;37397;53.226;10.400;2023-12-22T06:18:26;11.18;;;2.00;;
51312;SDS011;37397;53.226;10.400;2023-12-22T06:20:52;12.43;;;1.98;;
51312;SDS011;37397;53.226;10.400;2023-12-22T06:23:19;8.35;;;1.98;;
51312;SDS011;37397;53.226;10.400;2023-12-22T06:25:46;6.85;;;1.60;;
51312;SDS011;37397;53.226;10.400;2023-12-22T06:28:15;9.23;;;1.88;;
51312;SDS011;37397;53.226;10.400;2023-12-22T06:30:43;10.85;;;1.73;;
51312;SDS011;37397;53.226;10.400;2023-12-22T06:33:10;11.45;;;2.28;;
51312;SDS011;37397;53.226;10.400;2023-12-22T06:35:37;12.60;;;1.67;;
51312;SDS011;37397;53.226;10.400;2023-12-22T06:38:07;15.57;;;2.13;;
51312;SDS011;37397;53.226;10.400;2023-12-22T06:40:34;11.90;;;2.00;;
51312;SDS011;37397;53.226;10.400;2023-12-22T06:43:00;9.55;;;1.92;;
51312;SDS011;37397;53.226;10.400;2023-12-22T06:45:27;12.68;;;2.45;;
51312;SDS011;37397;53.226;10.400;2023-12-22T06:47:54;9.82;;;2.28;;
51312;SDS011;37397;53.226;10.400;2023-12-22T06:50:21;10.07;;;2.10;;
51312;SDS011;37397;53.226;10.400;2023-12-22T06:52:48;11.50;;;2.30;;
51312;SDS011;37397;53.226;10.400;2023-12-22T06:55:16;9.27;;;1.88;;
51312;SDS011;37397;53.226;10.400;2023-12-22T06:57:43;14.85;;;2.80;;
51312;SDS011;37397;53.226;10.400;2023-12-22T07:00:11;11.27;;;2.20;;
51312;SDS011;37397;53.226;10.400;2023-12-22T07:02:38;14.00;;;3.03;;
51312;SDS011;37397;53.226;10.400;2023-12-22T07:07:49;12.00;;;2.40;;
51312;SDS011;37397;53.226;10.400;2023-12-22T07:10:17;10.52;;;1.95;;
51312;SDS011;37397;53.226;10.400;2023-12-22T07:12:44;19.25;;;2.90;;
51312;SDS011;37397;53.226;10.400;2023-12-22T07:15:11;11.90;;;2.17;;
51312;SDS011;37397;53.226;10.400;2023-12-22T07:17:37;11.85;;;2.33;;
51312;SDS011;37397;53.226;10.400;2023-12-22T07:20:04;19.95;;;3.15;;
51312;SDS011;37397;53.226;10.400;2023-12-22T07:22:31;18.05;;;2.58;;
51312;SDS011;37397;53.226;10.400;2023-12-22T07:24:57;17.63;;;3.60;;
51312;SDS011;37397;53.226;10.400;2023-12-22T07:27:25;10.70;;;3.03;;
51312;SDS011;37397;53.226;10.400;2023-12-22T07:29:53;16.63;;;3.22;;
51312;SDS011;37397;53.226;10.400;2023-12-22T07:32:20;19.63;;;3.60;;
51312;SDS011;37397;53.226;10.400;2023-12-22T07:34:47;19.70;;;3.22;;
51312;SDS011;37397;53.226;10.400;2023-12-22T07:37:13;20.15;;;3.15;;
51312;SDS011;37397;53.226;10.400;2023-12-22T07:39:40;15.02;;;3.20;;
51312;SDS011;37397;53.226;10.400;2023-12-22T07:42:08;15.90;;;3.00;;
51312;SDS011;37397;53.226;10.400;2023-12-22T07:44:34;23.77;;;3.60;;
51312;SDS011;37397;53.226;10.400;2023-12-22T07:47:01;16.10;;;2.53;;
51312;SDS011;37397;53.226;10.400;2023-12-22T07:49:29;16.27;;;2.78;;
51312;SDS011;37397;53.226;10.400;2023-12-22T07:51:57;15.68;;;3.47;;
51312;SDS011;37397;53.226;10.400;2023-12-22T07:54:24;24.73;;;4.22;;
51312;SDS011;37397;53.226;10.400;2023-12-22T07:56:52;17.52;;;3.20;;
51312;SDS011;37397;53.226;10.400;2023-12-22T07:59:18;23.85;;;3.72;;
51312;SDS011;37397;53.226;10.400;2023-12-22T08:01:56;20.13;;;3.28;;
51312;SDS011;37397;53.226;10.400;2023-12-22T08:04:23;18.65;;;2.90;;
51312;SDS011;37397;53.226;10.400;2023-12-22T08:06:50;12.93;;;3.38;;
51312;SDS011;37397;53.226;10.400;2023-12-22T08:09:17;26.15;;;3.88;;
51312;SDS011;37397;53.226;10.400;2023-12-22T08:11:43;20.88;;;4.10;;
51312;SDS011;37397;53.226;10.400;2023-12-22T08:14:12;16.67;;;3.00;;
51312;SDS011;37397;53.226;10.400;2023-12-22T08:16:39;21.88;;;3.88;;
51312;SDS011;37397;53.226;10.400;2023-12-22T08:19:06;21.55;;;3.70;;
51312;SDS011;37397;53.226;10.400;2023-12-22T08:21:33;13.80;;;3.40;;
51312;SDS011;37397;53.226;10.400;2023-12-22T08:24:11;22.50;;;3.25;;
51312;SDS011;37397;53.226;10.400;2023-12-22T08:26:48;17.48;;;3.60;;
51312;SDS011;37397;53.226;10.400;2023-12-22T08:29:14;19.30;;;3.53;;
51312;SDS011;37397;53.226;10.400;2023-12-22T08:31:42;18.38;;;3.25;;
51312;SDS011;37397;53.226;10.400;2023-12-22T08:34:10;16.67;;;3.22;;
51312;SDS011;37397;53.226;10.400;2023-12-22T08:36:37;25.67;;;3.63;;
51312;SDS011;37397;53.226;10.400;2023-12-22T08:39:04;15.18;;;3.15;;
51312;SDS011;37397;53.226;10.400;2023-12-22T08:41:34;16.80;;;2.92;;
51312;SDS011;37397;53.226;10.400;2023-12-22T08:44:04;18.42;;;3.63;;
51312;SDS011;37397;53.226;10.400;2023-12-22T08:46:32;18.17;;;3.63;;
51312;SDS011;37397;53.226;10.400;2023-12-22T08:48:59;22.63;;;3.97;;
51312;SDS011;37397;53.226;10.400;2023-12-22T08:51:26;18.75;;;4.25;;
51312;SDS011;37397;53.226;10.400;2023-12-22T08:53:53;15.98;;;3.13;;
51312;SDS011;37397;53.226;10.400;2023-12-22T08:56:23;21.65;;;3.92;;
51312;SDS011;37397;53.226;10.400;2023-12-22T08:58:53;16.65;;;3.50;;
51312;SDS011;37397;53.226;10.400;2023-12-22T09:01:25;15.30;;;3.38;;
51312;SDS011;37397;53.226;10.400;2023-12-22T09:03:52;16.95;;;3.20;;
51312;SDS011;37397;53.226;10.400;2023-12-22T09:06:19;20.00;;;3.03;;
51312;SDS011;37397;53.226;10.400;2023-12-22T09:08:48;18.95;;;2.75;;
51312;SDS011;37397;53.226;10.400;2023-12-22T09:11:16;16.88;;;3.22;;
51312;SDS011;37397;53.226;10.400;2023-12-22T09:13:44;15.88;;;2.95;;
51312;SDS011;37397;53.226;10.400;2023-12-22T09:16:11;16.60;;;2.83;;
51312;SDS011;37397;53.226;10.400;2023-12-22T09:18:40;17.60;;;3.47;;
51312;SDS011;37397;53.226;10.400;2023-12-22T09:21:07;16.63;;;3.72;;
51312;SDS011;37397;53.226;10.400;2023-12-22T09:23:33;16.15;;;2.80;;
51312;SDS011;37397;53.226;10.400;2023-12-22T09:26:00;16.73;;;3.40;;
51312;SDS011;37397;53.226;10.400;2023-12-22T09:28:27;18.15;;;3.13;;
51312;SDS011;37397;53.226;10.400;2023-12-22T09:30:53;16.83;;;3.45;;
51312;SDS011;37397;53.226;10.400;2023-12-22T09:33:20;22.73;;;3.80;;
51312;SDS011;37397;53.226;10.400;2023-12-22T09:35:49;24.35;;;4.13;;
51312;SDS011;37397;53.226;10.400;2023-12-22T09:38:17;20.55;;;3.72;;
51312;SDS011;37397;53.226;10.400;2023-12-22T09:40:44;19.15;;;3.25;;
51312;SDS011;37397;53.226;10.400;2023-12-22T09:43:10;26.90;;;3.75;;
51312;SDS011;37397;53.226;10.400;2023-12-22T09:45:41;22.75;;;3.45;;
51312;SDS011;37397;53.226;10.400;2023-12-22T09:48:08;20.00;;;3.88;;
51312;SDS011;37397;53.226;10.400;2023-12-22T09:50:37;17.50;;;3.22;;
51312;SDS011;37397;53.226;10.400;2023-12-22T09:53:05;23.23;;;5.10;;
51312;SDS011;37397;53.226;10.400;2023-12-22T09:55:33;19.27;;;3.65;;
51312;SDS011;37397;53.226;10.400;2023-12-22T09:58:02;19.58;;;3.42;;
51312;SDS011;37397;53.226;10.400;2023-12-22T10:00:31;23.25;;;3.35;;
51312;SDS011;37397;53.226;10.400;2023-12-22T10:02:58;16.17;;;3.42;;
51312;SDS011;37397;53.226;10.400;2023-12-22T10:05:24;19.80;;;3.53;;
51312;SDS011;37397;53.226;10.400;2023-12-22T10:07:51;23.58;;;3.95;;
51312;SDS011;37397;53.226;10.400;2023-12-22T10:10:20;23.17;;;4.20;;
51312;SDS011;37397;53.226;10.400;2023-12-22T10:12:48;22.20;;;3.88;;
51312;SDS011;37397;53.226;10.400;2023-12-22T10:15:18;19.42;;;3.65;;
51312;SDS011;37397;53.226;10.400;2023-12-22T10:17:53;23.80;;;3.80;;
51312;SDS011;37397;53.226;10.400;2023-12-22T10:20:20;29.88;;;4.20;;
51312;SDS011;37397;53.226;10.400;2023-12-22T10:22:47;20.85;;;4.80;;
51312;SDS011;37397;53.226;10.400;2023-12-22T10:25:19;15.88;;;3.30;;
51312;SDS011;37397;53.226;10.400;2023-12-22T10:27:46;20.35;;;3.40;;
51312;SDS011;37397;53.226;10.400;2023-12-22T10:30:13;17.35;;;3.40;;
51312;SDS011;37397;53.226;10.400;2023-12-22T10:32:41;20.67;;;3.97;;
51312;SDS011;37397;53.226;10.400;2023-12-22T10:35:10;25.50;;;4.85;;
51312;SDS011;37397;53.226;10.400;2023-12-22T10:37:38;23.60;;;3.90;;
51312;SDS011;37397;53.226;10.400;2023-12-22T10:40:05;17.75;;;3.63;;
51312;SDS011;37397;53.226;10.400;2023-12-22T10:42:33;22.98;;;4.50;;
51312;SDS011;37397;53.226;10.400;2023-12-22T10:45:01;21.55;;;3.67;;
51312;SDS011;37397;53.226;10.400;2023-12-22T10:47:28;20.27;;;4.45;;
51312;SDS011;37397;53.226;10.400;2023-12-22T10:49:55;22.08;;;3.90;;
51312;SDS011;37397;53.226;10.400;2023-12-22T10:52:22;24.65;;;4.57;;
51312;SDS011;37397;53.226;10.400;2023-12-22T10:54:50;23.73;;;3.60;;
51312;SDS011;37397;53.226;10.400;2023-12-22T10:57:17;18.13;;;3.30;;
51312;SDS011;37397;53.226;10.400;2023-12-22T10:59:46;16.25;;;3.13;;
51312;SDS011;37397;53.226;10.400;2023-12-22T11:02:23;18.85;;;3.90;;
51312;SDS011;37397;53.226;10.400;2023-12-22T11:04:57;23.30;;;4.28;;
51312;SDS011;37397;53.226;10.400;2023-12-22T11:07:35;23.33;;;3.75;;
51312;SDS011;37397;53.226;10.400;2023-12-22T11:10:04;25.73;;;4.25;;
51312;SDS011;37397;53.226;10.400;2023-12-22T11:12:36;14.13;;;3.42;;
51312;SDS011;37397;53.226;10.400;2023-12-22T11:15:05;16.88;;;3.42;;
51312;SDS011;37397;53.226;10.400;2023-12-22T11:17:33;16.67;;;3.38;;
51312;SDS011;37397;53.226;10.400;2023-12-22T11:20:06;19.57;;;3.30;;
51312;SDS011;37397;53.226;10.400;2023-12-22T11:22:36;15.68;;;2.83;;
51312;SDS011;37397;53.226;10.400;2023-12-22T11:25:04;15.13;;;2.83;;
51312;SDS011;37397;53.226;10.400;2023-12-22T11:27:34;14.52;;;2.67;;
51312;SDS011;37397;53.226;10.400;2023-12-22T11:30:04;11.85;;;2.47;;
51312;SDS011;37397;53.226;10.400;2023-12-22T11:32:34;11.02;;;2.35;;
51312;SDS011;37397;53.226;10.400;2023-12-22T11:35:02;12.68;;;2.13;;
51312;SDS011;37397;53.226;10.400;2023-12-22T11:37:32;13.35;;;1.98;;
51312;SDS011;37397;53.226;10.400;2023-12-22T11:40:00;9.65;;;1.70;;
51312;SDS011;37397;53.226;10.400;2023-12-22T11:42:28;9.77;;;1.85;;
51312;SDS011;37397;53.226;10.400;2023-12-22T11:44:58;9.85;;;1.50;;
51312;SDS011;37397;53.226;10.400;2023-12-22T11:47:25;9.68;;;1.80;;
51312;SDS011;37397;53.226;10.400;2023-12-22T11:49:52;7.00;;;1.17;;
51312;SDS011;37397;53.226;10.400;2023-12-22T11:52:24;9.05;;;1.90;;
51312;SDS011;37397;53.226;10.400;2023-12-22T11:54:54;6.88;;;1.80;;
51312;SDS011;37397;53.226;10.400;2023-12-22T11:57:29;8.15;;;1.73;;
51312;SDS011;37397;53.226;10.400;2023-12-22T12:00:01;7.03;;;1.48;;
51312;SDS011;37397;53.226;10.400;2023-12-22T12:02:37;8.93;;;1.77;;
51312;SDS011;37397;53.226;10.400;2023-12-22T12:05:06;12.68;;;2.30;;
51312;SDS011;37397;53.226;10.400;2023-12-22T12:07:44;9.02;;;1.80;;
51312;SDS011;37397;53.226;10.400;2023-12-22T12:10:12;7.68;;;1.70;;
51312;SDS011;37397;53.226;10.400;2023-12-22T12:13:07;13.15;;;2.30;;
51312;SDS011;37397;53.226;10.400;2023-12-22T12:15:35;11.45;;;2.55;;
51312;SDS011;37397;53.226;10.400;2023-12-22T12:18:03;9.60;;;1.75;;
51312;SDS011;37397;53.226;10.400;2023-12-22T12:20:31;12.23;;;1.80;;
51312;SDS011;37397;53.226;10.400;2023-12-22T12:23:02;11.52;;;2.13;;
51312;SDS011;37397;53.226;10.400;2023-12-22T12:25:29;15.38;;;2.47;;
51312;SDS011;37397;53.226;10.400;2023-12-22T12:28:03;11.35;;;2.35;;
51312;SDS011;37397;53.226;10.400;2023-12-22T12:30:33;12.27;;;2.40;;
51312;SDS011;37397;53.226;10.400;2023-12-22T12:33:06;15.93;;;2.53;;
51312;SDS011;37397;53.226;10.400;2023-12-22T12:35:34;13.07;;;3.30;;
51312;SDS011;37397;53.226;10.400;2023-12-22T12:38:04;13.05;;;2.28;;
51312;SDS011;37397;53.226;10.400;2023-12-22T12:40:32;15.55;;;2.92;;
51312;SDS011;37397;53.226;10.400;2023-12-22T12:43:01;11.60;;;2.38;;
51312;SDS011;37397;53.226;10.400;2023-12-22T12:45:28;10.15;;;2.22;;
51312;SDS011;37397;53.226;10.400;2023-12-22T12:47:56;12.98;;;3.63;;
51312;SDS011;37397;53.226;10.400;2023-12-22T12:50:29;19.80;;;3.40;;
51312;SDS011;37397;53.226;10.400;2023-12-22T12:52:58;17.73;;;2.55;;
51312;SDS011;37397;53.226;10.400;2023-12-22T12:55:25;11.38;;;2.47;;
51312;SDS011;37397;53.226;10.400;2023-12-22T12:57:53;8.23;;;1.83;;
51312;SDS011;37397;53.226;10.400;2023-12-22T13:02:54;8.88;;;2.28;;
51312;SDS011;37397;53.226;10.400;2023-12-22T13:05:22;10.95;;;2.17;;
51312;SDS011;37397;53.226;10.400;2023-12-22T13:07:49;9.27;;;2.30;;
51312;SDS011;37397;53.226;10.400;2023-12-22T13:10:24;13.00;;;2.33;;
51312;SDS011;37397;53.226;10.400;2023-12-22T13:12:52;12.18;;;2.38;;
51312;SDS011;37397;53.226;10.400;2023-12-22T13:15:21;8.35;;;1.98;;
51312;SDS011;37397;53.226;10.400;2023-12-22T13:17:48;7.50;;;1.88;;
51312;SDS011;37397;53.226;10.400;2023-12-22T13:20:15;9.23;;;1.83;;
51312;SDS011;37397;53.226;10.400;2023-12-22T13:22:42;11.88;;;1.90;;
51312;SDS011;37397;53.226;10.400;2023-12-22T13:25:10;6.53;;;2.10;;
51312;SDS011;37397;53.226;10.400;2023-12-22T13:27:47;7.80;;;1.92;;
51312;SDS011;37397;53.226;10.400;2023-12-22T13:30:31;6.85;;;1.65;;
51312;SDS011;37397;53.226;10.400;2023-12-22T13:32:58;9.50;;;1.80;;
51312;SDS011;37397;53.226;10.400;2023-12-22T13:35:25;11.70;;;1.90;;
51312;SDS011;37397;53.226;10.400;2023-12-22T13:37:54;10.25;;;1.83;;
51312;SDS011;37397;53.226;10.400;2023-12-22T13:40:21;8.60;;;1.70;;
51312;SDS011;37397;53.226;10.400;2023-12-22T13:42:55;9.82;;;1.80;;
51312;SDS011;37397;53.226;10.400;2023-12-22T13:45:24;13.93;;;2.28;;
51312;SDS011;37397;53.226;10.400;2023-12-22T13:47:51;6.13;;;1.80;;
51312;SDS011;37397;53.226;10.400;2023-12-22T13:50:18;9.05;;;1.73;;
51312;SDS011;37397;53.226;10.400;2023-12-22T13:52:45;10.45;;;1.90;;
51312;SDS011;37397;53.226;10.400;2023-12-22T13:55:15;8.43;;;2.05;;
51312;SDS011;37397;53.226;10.400;2023-12-22T13:57:43;9.98;;;2.20;;
51312;SDS011;37397;53.226;10.400;2023-12-22T14:02:43;13.40;;;2.90;;
51312;SDS011;37397;53.226;10.400;2023-12-22T14:05:09;14.85;;;2.58;;
51312;SDS011;37397;53.226;10.400;2023-12-22T14:07:36;12.02;;;2.58;;
51312;SDS011;37397;53.226;10.400;2023-12-22T14:10:04;12.35;;;2.30;;
51312;SDS011;37397;53.226;10.400;2023-12-22T14:12:34;13.65;;;1.92;;
51312;SDS011;37397;53.226;10.400;2023-12-22T14:15:05;9.77;;;2.20;;
51312;SDS011;37397;53.226;10.400;2023-12-22T14:17:33;10.50;;;2.33;;
51312;SDS011;37397;53.226;10.400;2023-12-22T14:19:59;9.80;;;1.75;;
51312;SDS011;37397;53.226;10.400;2023-12-22T14:22:27;12.80;;;2.10;;
51312;SDS011;37397;53.226;10.400;2023-12-22T14:24:54;10.80;;;2.20;;
51312;SDS011;37397;53.226;10.400;2023-12-22T14:27:22;15.40;;;2.20;;
51312;SDS011;37397;53.226;10.400;2023-12-22T14:29:49;14.13;;;2.22;;
51312;SDS011;37397;53.226;10.400;2023-12-22T14:32:16;9.57;;;2.15;;
51312;SDS011;37397;53.226;10.400;2023-12-22T14:34:45;16.05;;;2.33;;